sensor_id;sensor_type;location;lat;lon;timestamp;pressure;altitude;pressure_sealevel;temperature;humidity
42519;BME280;28147;47.520;18.920;2022-10-16T00:01:09;98910.66;;;16.87;56.71
42519;BME280;28147;47.520;18.920;2022-10-16T00:03:37;98898.94;;;17.18;56.30
42519;BME280;28147;47.520;18.920;2022-10-16T00:06:03;98896.53;;;17.17;56.09
42519;BME280;28147;47.520;18.920;2022-10-16T00:08:29;98892.41;;;16.94;56.65
42519;BME280;28147;47.520;18.920;2022-10-16T00:11:03;98897.09;;;17.34;55.39
42519;BME280;28147;47.520;18.920;2022-10-16T00:13:30;98901.00;;;16.91;56.30
42519;BME280;28147;47.520;18.920;2022-10-16T00:15:57;98897.47;;;16.85;56.48
42519;BME280;28147;47.520;18.920;2022-10-16T00:18:23;98894.66;;;17.22;56.04
42519;BME280;28147;47.520;18.920;2022-10-16T00:20:49;98907.88;;;17.34;56.54
42519;BME280;28147;47.520;18.920;2022-10-16T00:23:14;98913.56;;;17.43;56.31
42519;BME280;28147;47.520;18.920;2022-10-16T00:25:39;98919.75;;;17.43;55.76
42519;BME280;28147;47.520;18.920;2022-10-16T00:28:05;98923.28;;;17.54;55.59
42519;BME280;28147;47.520;18.920;2022-10-16T00:30:30;98910.88;;;17.43;55.60
42519;BME280;28147;47.520;18.920;2022-10-16T00:32:56;98918.91;;;17.27;56.03
42519;BME280;28147;47.520;18.920;2022-10-16T00:35:21;98918.16;;;17.47;55.51
42519;BME280;28147;47.520;18.920;2022-10-16T00:37:47;98918.41;;;17.41;55.15
42519;BME280;28147;47.520;18.920;2022-10-16T00:40:12;98915.47;;;17.58;54.85
42519;BME280;28147;47.520;18.920;2022-10-16T00:42:38;98917.31;;;17.37;55.98
42519;BME280;28147;47.520;18.920;2022-10-16T00:45:03;98918.22;;;16.95;56.40
42519;BME280;28147;47.520;18.920;2022-10-16T00:47:32;98913.44;;;17.07;56.53
42519;BME280;28147;47.520;18.920;2022-10-16T00:52:32;98922.34;;;17.18;56.46
42519;BME280;28147;47.520;18.920;2022-10-16T00:54:58;98923.06;;;16.93;57.57
42519;BME280;28147;47.520;18.920;2022-10-16T00:57:24;98921.66;;;16.80;58.60
42519;BME280;28147;47.520;18.920;2022-10-16T00:59:50;98927.50;;;16.72;59.17
42519;BME280;28147;47.520;18.920;2022-10-16T01:02:17;98930.09;;;16.57;59.34
42519;BME280;28147;47.520;18.920;2022-10-16T01:04:46;98932.28;;;16.65;59.45
42519;BME280;28147;47.520;18.920;2022-10-16T01:09:51;98936.06;;;16.64;59.46
42519;BME280;28147;47.520;18.920;2022-10-16T01:12:36;98940.53;;;16.48;59.56
42519;BME280;28147;47.520;18.920;2022-10-16T01:17:45;98944.56;;;16.50;59.79
42519;BME280;28147;47.520;18.920;2022-10-16T01:25:22;98951.97;;;16.33;59.77
42519;BME280;28147;47.520;18.920;2022-10-16T01:27:50;98946.22;;;16.19;60.15
42519;BME280;28147;47.520;18.920;2022-10-16T01:30:20;98947.50;;;16.12;60.24
42519;BME280;28147;47.520;18.920;2022-10-16T01:32:52;98952.66;;;16.18;59.85
42519;BME280;28147;47.520;18.920;2022-10-16T01:35:36;98946.09;;;16.04;59.94
42519;BME280;28147;47.520;18.920;2022-10-16T01:40:34;98946.41;;;15.80;61.00
42519;BME280;28147;47.520;18.920;2022-10-16T01:43:22;98955.16;;;15.71;61.20
42519;BME280;28147;47.520;18.920;2022-10-16T01:45:51;98952.28;;;15.77;60.92
42519;BME280;28147;47.520;18.920;2022-10-16T01:48:18;98954.38;;;15.70;60.73
42519;BME280;28147;47.520;18.920;2022-10-16T01:50:53;98957.53;;;15.67;61.25
42519;BME280;28147;47.520;18.920;2022-10-16T01:53:20;98965.22;;;15.58;61.02
42519;BME280;28147;47.520;18.920;2022-10-16T01:55:47;98959.53;;;15.55;61.05
42519;BME280;28147;47.520;18.920;2022-10-16T01:58:14;98960.22;;;15.67;60.31
42519;BME280;28147;47.520;18.920;2022-10-16T02:00:43;98969.28;;;15.61;60.63
42519;BME280;28147;47.520;18.920;2022-10-16T02:03:11;98974.25;;;15.52;60.13
42519;BME280;28147;47.520;18.920;2022-10-16T02:05:45;98971.22;;;15.44;61.27
42519;BME280;28147;47.520;18.920;2022-10-16T02:08:11;98972.16;;;15.54;59.66
42519;BME280;28147;47.520;18.920;2022-10-16T02:10:37;98971.72;;;15.41;60.39
42519;BME280;28147;47.520;18.920;2022-10-16T02:13:10;98977.25;;;15.34;61.12
42519;BME280;28147;47.520;18.920;2022-10-16T02:15:37;98980.91;;;15.23;61.91
42519;BME280;28147;47.520;18.920;2022-10-16T02:18:04;98982.56;;;15.07;62.25
42519;BME280;28147;47.520;18.920;2022-10-16T02:20:34;98979.06;;;15.06;62.17
42519;BME280;28147;47.520;18.920;2022-10-16T02:23:03;98969.72;;;15.09;62.35
42519;BME280;28147;47.520;18.920;2022-10-16T02:25:40;98973.97;;;15.05;61.98
42519;BME280;28147;47.520;18.920;2022-10-16T02:28:22;98972.53;;;14.97;62.35
42519;BME280;28147;47.520;18.920;2022-10-16T02:30:58;98977.09;;;14.97;62.22
42519;BME280;28147;47.520;18.920;2022-10-16T02:33:25;98975.44;;;14.96;62.47
42519;BME280;28147;47.520;18.920;2022-10-16T02:35:52;98979.50;;;14.98;62.15
42519;BME280;28147;47.520;18.920;2022-10-16T02:38:20;98986.81;;;15.03;61.88
42519;BME280;28147;47.520;18.920;2022-10-16T02:40:46;98978.72;;;15.20;60.84
42519;BME280;28147;47.520;18.920;2022-10-16T02:43:12;98981.59;;;15.35;59.12
42519;BME280;28147;47.520;18.920;2022-10-16T02:45:38;98977.53;;;15.32;59.91
42519;BME280;28147;47.520;18.920;2022-10-16T02:48:04;98989.00;;;15.28;60.46
42519;BME280;28147;47.520;18.920;2022-10-16T02:50:29;98989.25;;;15.48;59.40
42519;BME280;28147;47.520;18.920;2022-10-16T02:52:55;98982.06;;;15.54;58.85
42519;BME280;28147;47.520;18.920;2022-10-16T02:55:20;98996.31;;;15.32;59.69
42519;BME280;28147;47.520;18.920;2022-10-16T02:57:45;98994.59;;;15.26;60.02
42519;BME280;28147;47.520;18.920;2022-10-16T03:00:13;98996.00;;;15.29;59.78
42519;BME280;28147;47.520;18.920;2022-10-16T03:02:40;98988.69;;;15.24;60.75
42519;BME280;28147;47.520;18.920;2022-10-16T03:05:05;98985.81;;;15.09;60.61
42519;BME280;28147;47.520;18.920;2022-10-16T03:07:31;98994.63;;;15.04;60.75
42519;BME280;28147;47.520;18.920;2022-10-16T03:09:57;98997.63;;;15.08;60.83
42519;BME280;28147;47.520;18.920;2022-10-16T03:12:25;98994.94;;;14.91;60.69
42519;BME280;28147;47.520;18.920;2022-10-16T03:14:51;98996.59;;;15.14;60.54
42519;BME280;28147;47.520;18.920;2022-10-16T03:17:16;99002.13;;;14.86;61.12
42519;BME280;28147;47.520;18.920;2022-10-16T03:19:42;99006.41;;;14.87;61.24
42519;BME280;28147;47.520;18.920;2022-10-16T03:22:07;99011.09;;;14.96;60.60
42519;BME280;28147;47.520;18.920;2022-10-16T03:24:33;99020.16;;;14.73;61.14
42519;BME280;28147;47.520;18.920;2022-10-16T03:26:59;99012.84;;;14.86;60.96
42519;BME280;28147;47.520;18.920;2022-10-16T03:29:24;99012.28;;;14.83;60.78
42519;BME280;28147;47.520;18.920;2022-10-16T03:31:51;99016.19;;;14.76;61.22
42519;BME280;28147;47.520;18.920;2022-10-16T03:34:16;99014.78;;;14.73;60.89
42519;BME280;28147;47.520;18.920;2022-10-16T03:36:41;99020.25;;;14.78;61.07
42519;BME280;28147;47.520;18.920;2022-10-16T03:39:07;99018.59;;;14.94;60.52
42519;BME280;28147;47.520;18.920;2022-10-16T03:41:32;99020.56;;;14.82;60.78
42519;BME280;28147;47.520;18.920;2022-10-16T03:43:57;99025.66;;;14.83;60.78
42519;BME280;28147;47.520;18.920;2022-10-16T03:46:23;99023.41;;;14.75;60.79
42519;BME280;28147;47.520;18.920;2022-10-16T03:48:49;99030.63;;;14.58;61.56
42519;BME280;28147;47.520;18.920;2022-10-16T03:51:14;99019.19;;;14.79;60.63
42519;BME280;28147;47.520;18.920;2022-10-16T03:53:39;99018.69;;;14.82;60.69
42519;BME280;28147;47.520;18.920;2022-10-16T03:56:05;99027.88;;;14.87;60.16
42519;BME280;28147;47.520;18.920;2022-10-16T03:58:31;99027.38;;;14.90;59.89
42519;BME280;28147;47.520;18.920;2022-10-16T04:00:56;99032.50;;;14.74;60.94
42519;BME280;28147;47.520;18.920;2022-10-16T04:03:21;99032.03;;;14.60;61.07
42519;BME280;28147;47.520;18.920;2022-10-16T04:05:48;99027.25;;;14.63;61.12
42519;BME280;28147;47.520;18.920;2022-10-16T04:08:13;99026.00;;;14.53;61.10
42519;BME280;28147;47.520;18.920;2022-10-16T04:10:39;99036.41;;;14.67;60.82
42519;BME280;28147;47.520;18.920;2022-10-16T04:13:04;99034.44;;;14.62;61.08
42519;BME280;28147;47.520;18.920;2022-10-16T04:15:30;99043.00;;;14.59;60.45
42519;BME280;28147;47.520;18.920;2022-10-16T04:17:55;99040.84;;;14.44;61.69
42519;BME280;28147;47.520;18.920;2022-10-16T04:20:20;99038.91;;;14.40;61.88
42519;BME280;28147;47.520;18.920;2022-10-16T04:22:46;99033.09;;;14.31;61.93
42519;BME280;28147;47.520;18.920;2022-10-16T04:25:11;99031.63;;;14.23;62.14
42519;BME280;28147;47.520;18.920;2022-10-16T04:27:37;99047.69;;;14.06;62.73
42519;BME280;28147;47.520;18.920;2022-10-16T04:30:04;99042.28;;;14.18;62.49
42519;BME280;28147;47.520;18.920;2022-10-16T04:32:29;99034.31;;;14.06;62.70
42519;BME280;28147;47.520;18.920;2022-10-16T04:34:55;99042.81;;;14.03;62.64
42519;BME280;28147;47.520;18.920;2022-10-16T04:37:26;99039.59;;;14.18;61.89
42519;BME280;28147;47.520;18.920;2022-10-16T04:39:52;99046.00;;;14.17;61.86
42519;BME280;28147;47.520;18.920;2022-10-16T04:42:17;99041.41;;;14.29;61.35
42519;BME280;28147;47.520;18.920;2022-10-16T04:44:42;99052.91;;;14.47;60.80
42519;BME280;28147;47.520;18.920;2022-10-16T04:47:08;99049.09;;;14.43;60.57
42519;BME280;28147;47.520;18.920;2022-10-16T04:49:34;99049.97;;;14.31;60.96
42519;BME280;28147;47.520;18.920;2022-10-16T04:51:59;99044.22;;;14.23;61.65
42519;BME280;28147;47.520;18.920;2022-10-16T04:54:25;99055.34;;;14.31;60.99
42519;BME280;28147;47.520;18.920;2022-10-16T04:56:50;99046.09;;;14.22;61.54
42519;BME280;28147;47.520;18.920;2022-10-16T04:59:18;99048.78;;;14.39;61.00
42519;BME280;28147;47.520;18.920;2022-10-16T05:01:44;99045.00;;;14.06;62.17
42519;BME280;28147;47.520;18.920;2022-10-16T05:04:10;99044.88;;;14.13;62.16
42519;BME280;28147;47.520;18.920;2022-10-16T05:06:36;99045.69;;;14.30;61.75
42519;BME280;28147;47.520;18.920;2022-10-16T05:09:02;99047.16;;;14.21;61.80
42519;BME280;28147;47.520;18.920;2022-10-16T05:11:27;99046.28;;;14.32;61.07
42519;BME280;28147;47.520;18.920;2022-10-16T05:13:53;99051.97;;;14.36;61.11
42519;BME280;28147;47.520;18.920;2022-10-16T05:16:18;99057.34;;;14.24;61.45
42519;BME280;28147;47.520;18.920;2022-10-16T05:18:44;99065.75;;;14.45;60.82
42519;BME280;28147;47.520;18.920;2022-10-16T05:21:09;99063.03;;;14.28;61.27
42519;BME280;28147;47.520;18.920;2022-10-16T05:23:34;99069.84;;;14.47;60.91
42519;BME280;28147;47.520;18.920;2022-10-16T05:26:00;99069.84;;;14.47;60.77
42519;BME280;28147;47.520;18.920;2022-10-16T05:28:27;99075.34;;;14.41;60.70
42519;BME280;28147;47.520;18.920;2022-10-16T05:30:53;99087.16;;;14.73;61.40
42519;BME280;28147;47.520;18.920;2022-10-16T05:33:23;99075.22;;;14.64;60.21
42519;BME280;28147;47.520;18.920;2022-10-16T05:35:50;99075.47;;;14.79;59.72
42519;BME280;28147;47.520;18.920;2022-10-16T05:38:16;99065.88;;;14.83;59.69
42519;BME280;28147;47.520;18.920;2022-10-16T05:40:41;99067.09;;;14.76;59.50
42519;BME280;28147;47.520;18.920;2022-10-16T05:43:07;99076.09;;;14.53;60.82
42519;BME280;28147;47.520;18.920;2022-10-16T05:45:32;99078.97;;;14.63;60.85
42519;BME280;28147;47.520;18.920;2022-10-16T05:47:59;99081.16;;;14.66;61.44
42519;BME280;28147;47.520;18.920;2022-10-16T05:50:24;99085.06;;;14.58;61.59
42519;BME280;28147;47.520;18.920;2022-10-16T05:52:50;99085.94;;;14.64;61.81
42519;BME280;28147;47.520;18.920;2022-10-16T05:55:15;99085.94;;;14.64;61.87
42519;BME280;28147;47.520;18.920;2022-10-16T05:57:41;99089.34;;;14.59;62.07
42519;BME280;28147;47.520;18.920;2022-10-16T06:00:06;99090.75;;;14.79;61.63
42519;BME280;28147;47.520;18.920;2022-10-16T06:02:32;99096.25;;;14.72;62.06
42519;BME280;28147;47.520;18.920;2022-10-16T06:04:57;99104.78;;;15.03;61.20
42519;BME280;28147;47.520;18.920;2022-10-16T06:07:23;99108.78;;;15.00;61.06
42519;BME280;28147;47.520;18.920;2022-10-16T06:09:49;99120.38;;;15.23;60.42
42519;BME280;28147;47.520;18.920;2022-10-16T06:12:15;99111.59;;;15.27;59.54
42519;BME280;28147;47.520;18.920;2022-10-16T06:14:41;99108.50;;;15.36;59.55
42519;BME280;28147;47.520;18.920;2022-10-16T06:17:06;99108.13;;;15.66;58.51
42519;BME280;28147;47.520;18.920;2022-10-16T06:19:31;99111.34;;;15.68;58.92
42519;BME280;28147;47.520;18.920;2022-10-16T06:21:57;99117.22;;;15.87;57.84
42519;BME280;28147;47.520;18.920;2022-10-16T06:24:23;99134.47;;;15.52;56.28
42519;BME280;28147;47.520;18.920;2022-10-16T06:26:49;99141.94;;;15.67;55.38
42519;BME280;28147;47.520;18.920;2022-10-16T06:29:14;99145.53;;;15.72;55.28
42519;BME280;28147;47.520;18.920;2022-10-16T06:31:39;99141.81;;;15.78;55.42
42519;BME280;28147;47.520;18.920;2022-10-16T06:34:05;99142.44;;;15.47;55.59
42519;BME280;28147;47.520;18.920;2022-10-16T06:36:34;99147.97;;;15.96;54.91
42519;BME280;28147;47.520;18.920;2022-10-16T06:39:00;99142.09;;;15.60;55.08
42519;BME280;28147;47.520;18.920;2022-10-16T06:41:25;99155.88;;;15.47;56.13
42519;BME280;28147;47.520;18.920;2022-10-16T06:43:51;99156.31;;;15.99;55.38
42519;BME280;28147;47.520;18.920;2022-10-16T06:46:20;99167.56;;;15.57;55.40
42519;BME280;28147;47.520;18.920;2022-10-16T06:48:46;99166.50;;;15.58;56.37
42519;BME280;28147;47.520;18.920;2022-10-16T06:51:13;99164.94;;;16.01;55.49
42519;BME280;28147;47.520;18.920;2022-10-16T06:53:42;99170.19;;;15.91;54.78
42519;BME280;28147;47.520;18.920;2022-10-16T06:56:25;99171.91;;;16.24;53.64
42519;BME280;28147;47.520;18.920;2022-10-16T06:58:52;99181.03;;;15.79;55.13
42519;BME280;28147;47.520;18.920;2022-10-16T07:01:19;99182.84;;;15.57;55.57
42519;BME280;28147;47.520;18.920;2022-10-16T07:03:45;99182.38;;;15.26;56.74
42519;BME280;28147;47.520;18.920;2022-10-16T07:06:13;99188.91;;;15.30;55.98
42519;BME280;28147;47.520;18.920;2022-10-16T07:08:41;99198.31;;;15.67;55.39
42519;BME280;28147;47.520;18.920;2022-10-16T07:11:12;99202.16;;;16.37;53.84
42519;BME280;28147;47.520;18.920;2022-10-16T07:13:39;99195.34;;;15.85;55.25
42519;BME280;28147;47.520;18.920;2022-10-16T07:16:10;99195.22;;;15.97;55.13
42519;BME280;28147;47.520;18.920;2022-10-16T07:18:35;99196.41;;;15.84;54.96
42519;BME280;28147;47.520;18.920;2022-10-16T07:21:05;99207.50;;;15.71;55.30
42519;BME280;28147;47.520;18.920;2022-10-16T07:23:30;99200.75;;;15.68;54.56
42519;BME280;28147;47.520;18.920;2022-10-16T07:25:56;99202.44;;;15.74;54.66
42519;BME280;28147;47.520;18.920;2022-10-16T07:28:21;99199.03;;;16.01;53.72
42519;BME280;28147;47.520;18.920;2022-10-16T07:30:47;99199.66;;;16.52;53.19
42519;BME280;28147;47.520;18.920;2022-10-16T07:33:13;99198.50;;;17.29;51.16
42519;BME280;28147;47.520;18.920;2022-10-16T07:35:53;99211.41;;;16.46;52.04
42519;BME280;28147;47.520;18.920;2022-10-16T07:38:19;99200.19;;;17.40;51.02
42519;BME280;28147;47.520;18.920;2022-10-16T07:40:46;99208.69;;;18.07;49.57
42519;BME280;28147;47.520;18.920;2022-10-16T07:43:11;99196.13;;;18.22;48.63
42519;BME280;28147;47.520;18.920;2022-10-16T07:45:37;99204.91;;;18.70;48.53
42519;BME280;28147;47.520;18.920;2022-10-16T07:48:03;99202.00;;;18.14;48.41
42519;BME280;28147;47.520;18.920;2022-10-16T07:50:29;99208.88;;;18.58;48.11
42519;BME280;28147;47.520;18.920;2022-10-16T07:52:54;99204.03;;;18.55;48.05
42519;BME280;28147;47.520;18.920;2022-10-16T07:55:19;99214.94;;;19.36;46.86
42519;BME280;28147;47.520;18.920;2022-10-16T07:57:45;99219.78;;;18.83;46.70
42519;BME280;28147;47.520;18.920;2022-10-16T08:00:10;99223.31;;;19.19;46.13
42519;BME280;28147;47.520;18.920;2022-10-16T08:02:39;99218.72;;;19.71;46.28
42519;BME280;28147;47.520;18.920;2022-10-16T08:05:05;99219.50;;;19.77;45.94
42519;BME280;28147;47.520;18.920;2022-10-16T08:07:31;99224.34;;;19.85;46.52
42519;BME280;28147;47.520;18.920;2022-10-16T08:09:56;99225.75;;;19.67;46.56
42519;BME280;28147;47.520;18.920;2022-10-16T08:12:23;99226.28;;;19.74;45.99
42519;BME280;28147;47.520;18.920;2022-10-16T08:14:48;99242.66;;;20.13;45.66
42519;BME280;28147;47.520;18.920;2022-10-16T08:17:15;99238.41;;;19.46;46.14
42519;BME280;28147;47.520;18.920;2022-10-16T08:19:44;99240.41;;;20.36;45.37
42519;BME280;28147;47.520;18.920;2022-10-16T08:22:10;99238.31;;;20.82;44.40
42519;BME280;28147;47.520;18.920;2022-10-16T08:24:35;99244.84;;;19.96;44.91
42519;BME280;28147;47.520;18.920;2022-10-16T08:27:02;99247.56;;;19.96;45.44
42519;BME280;28147;47.520;18.920;2022-10-16T08:29:28;99256.16;;;20.13;46.04
42519;BME280;28147;47.520;18.920;2022-10-16T08:31:53;99246.28;;;19.68;45.11
42519;BME280;28147;47.520;18.920;2022-10-16T08:34:19;99241.97;;;19.67;45.97
42519;BME280;28147;47.520;18.920;2022-10-16T08:36:44;99246.78;;;19.60;45.58
42519;BME280;28147;47.520;18.920;2022-10-16T08:39:10;99246.25;;;19.17;46.26
42519;BME280;28147;47.520;18.920;2022-10-16T08:41:56;99251.66;;;19.27;46.89
42519;BME280;28147;47.520;18.920;2022-10-16T08:44:35;99257.00;;;20.04;45.76
42519;BME280;28147;47.520;18.920;2022-10-16T08:47:20;99241.91;;;19.87;44.78
42519;BME280;28147;47.520;18.920;2022-10-16T08:50:08;99258.38;;;19.96;45.23
42519;BME280;28147;47.520;18.920;2022-10-16T08:52:39;99262.66;;;20.12;44.95
42519;BME280;28147;47.520;18.920;2022-10-16T08:55:06;99266.94;;;20.94;42.94
42519;BME280;28147;47.520;18.920;2022-10-16T08:57:32;99262.56;;;20.43;44.21
42519;BME280;28147;47.520;18.920;2022-10-16T09:00:11;99269.13;;;20.11;44.95
42519;BME280;28147;47.520;18.920;2022-10-16T09:02:53;99265.69;;;21.54;44.07
42519;BME280;28147;47.520;18.920;2022-10-16T09:05:27;99263.00;;;22.37;42.02
42519;BME280;28147;47.520;18.920;2022-10-16T09:13:14;99270.94;;;21.06;44.78
42519;BME280;28147;47.520;18.920;2022-10-16T09:18:54;99264.56;;;22.19;42.83
42519;BME280;28147;47.520;18.920;2022-10-16T09:21:31;99270.25;;;21.88;42.01
42519;BME280;28147;47.520;18.920;2022-10-16T09:24:11;99265.75;;;22.55;41.59
42519;BME280;28147;47.520;18.920;2022-10-16T09:26:38;99261.09;;;22.99;40.54
42519;BME280;28147;47.520;18.920;2022-10-16T09:29:03;99257.25;;;22.62;40.22
42519;BME280;28147;47.520;18.920;2022-10-16T09:31:29;99268.91;;;22.39;40.02
42519;BME280;28147;47.520;18.920;2022-10-16T09:33:58;99278.25;;;22.32;40.63
42519;BME280;28147;47.520;18.920;2022-10-16T09:36:27;99275.13;;;21.91;41.17
42519;BME280;28147;47.520;18.920;2022-10-16T09:39:07;99271.78;;;22.71;40.04
42519;BME280;28147;47.520;18.920;2022-10-16T09:41:35;99278.94;;;21.90;40.87
42519;BME280;28147;47.520;18.920;2022-10-16T09:44:03;99285.00;;;22.54;39.97
42519;BME280;28147;47.520;18.920;2022-10-16T09:46:36;99288.38;;;22.46;40.54
42519;BME280;28147;47.520;18.920;2022-10-16T09:49:21;99290.63;;;21.56;42.43
42519;BME280;28147;47.520;18.920;2022-10-16T09:51:47;99294.69;;;21.14;42.94
42519;BME280;28147;47.520;18.920;2022-10-16T09:54:18;99302.50;;;20.72;44.26
42519;BME280;28147;47.520;18.920;2022-10-16T09:56:44;99298.31;;;21.44;43.62
42519;BME280;28147;47.520;18.920;2022-10-16T09:59:16;99303.84;;;21.63;42.22
42519;BME280;28147;47.520;18.920;2022-10-16T10:01:53;99299.13;;;21.74;42.41
42519;BME280;28147;47.520;18.920;2022-10-16T10:04:22;99297.19;;;20.51;44.55
42519;BME280;28147;47.520;18.920;2022-10-16T10:06:50;99283.97;;;20.99;43.58
42519;BME280;28147;47.520;18.920;2022-10-16T10:11:58;99279.66;;;21.37;42.17
42519;BME280;28147;47.520;18.920;2022-10-16T10:16:51;99271.75;;;21.75;41.88
42519;BME280;28147;47.520;18.920;2022-10-16T10:19:22;99276.59;;;20.55;43.18
42519;BME280;28147;47.520;18.920;2022-10-16T10:21:49;99283.88;;;21.14;43.39
42519;BME280;28147;47.520;18.920;2022-10-16T10:24:16;99283.38;;;21.07;42.67
42519;BME280;28147;47.520;18.920;2022-10-16T10:26:49;99275.75;;;21.09;41.99
42519;BME280;28147;47.520;18.920;2022-10-16T10:29:33;99272.69;;;20.82;42.91
42519;BME280;28147;47.520;18.920;2022-10-16T10:40:51;99279.69;;;21.96;41.73
42519;BME280;28147;47.520;18.920;2022-10-16T10:46:02;99271.69;;;22.09;41.12
42519;BME280;28147;47.520;18.920;2022-10-16T10:48:54;99281.88;;;21.94;41.14
42519;BME280;28147;47.520;18.920;2022-10-16T10:51:49;99279.84;;;22.76;41.25
42519;BME280;28147;47.520;18.920;2022-10-16T10:54:32;99286.09;;;22.77;40.13
42519;BME280;28147;47.520;18.920;2022-10-16T10:57:04;99286.59;;;22.36;40.15
42519;BME280;28147;47.520;18.920;2022-10-16T10:59:50;99285.09;;;22.49;40.76
42519;BME280;28147;47.520;18.920;2022-10-16T11:08:15;99281.59;;;22.67;40.32
42519;BME280;28147;47.520;18.920;2022-10-16T11:10:47;99272.72;;;22.62;39.75
42519;BME280;28147;47.520;18.920;2022-10-16T11:13:24;99275.72;;;21.54;41.49
42519;BME280;28147;47.520;18.920;2022-10-16T11:15:57;99276.44;;;21.30;42.04
42519;BME280;28147;47.520;18.920;2022-10-16T11:21:22;99269.16;;;21.26;43.22
42519;BME280;28147;47.520;18.920;2022-10-16T11:23:56;99265.41;;;21.17;42.05
42519;BME280;28147;47.520;18.920;2022-10-16T11:26:27;99269.91;;;21.31;41.71
42519;BME280;28147;47.520;18.920;2022-10-16T11:28:55;99263.75;;;21.21;41.87
42519;BME280;28147;47.520;18.920;2022-10-16T11:31:26;99269.53;;;22.36;41.48
42519;BME280;28147;47.520;18.920;2022-10-16T11:34:25;99260.22;;;22.42;40.29
42519;BME280;28147;47.520;18.920;2022-10-16T11:37:09;99259.44;;;22.12;41.01
42519;BME280;28147;47.520;18.920;2022-10-16T11:39:38;99261.09;;;22.37;40.99
42519;BME280;28147;47.520;18.920;2022-10-16T11:42:36;99272.06;;;22.51;39.45
42519;BME280;28147;47.520;18.920;2022-10-16T11:45:24;99275.91;;;21.28;42.39
42519;BME280;28147;47.520;18.920;2022-10-16T11:48:41;99274.00;;;21.34;41.65
42519;BME280;28147;47.520;18.920;2022-10-16T11:50:58;99272.38;;;21.28;41.81
42519;BME280;28147;47.520;18.920;2022-10-16T11:53:43;99263.78;;;20.76;43.27
42519;BME280;28147;47.520;18.920;2022-10-16T11:56:18;99269.06;;;21.41;42.19
42519;BME280;28147;47.520;18.920;2022-10-16T12:01:17;99265.41;;;21.22;43.90
42519;BME280;28147;47.520;18.920;2022-10-16T12:08:59;99262.53;;;20.58;44.83
42519;BME280;28147;47.520;18.920;2022-10-16T12:19:24;99255.19;;;21.48;42.99
42519;BME280;28147;47.520;18.920;2022-10-16T12:21:51;99258.44;;;21.50;43.50
42519;BME280;28147;47.520;18.920;2022-10-16T12:26:58;99248.97;;;21.47;43.66
42519;BME280;28147;47.520;18.920;2022-10-16T12:29:37;99250.44;;;20.90;43.62
42519;BME280;28147;47.520;18.920;2022-10-16T12:32:05;99251.31;;;20.80;43.87
42519;BME280;28147;47.520;18.920;2022-10-16T12:34:44;99247.25;;;21.22;43.27
42519;BME280;28147;47.520;18.920;2022-10-16T12:37:18;99249.84;;;20.98;43.97
42519;BME280;28147;47.520;18.920;2022-10-16T12:39:46;99248.38;;;20.72;44.62
42519;BME280;28147;47.520;18.920;2022-10-16T12:44:50;99250.50;;;21.58;43.50
42519;BME280;28147;47.520;18.920;2022-10-16T12:47:49;99248.84;;;21.23;43.87
42519;BME280;28147;47.520;18.920;2022-10-16T12:50:36;99258.56;;;20.90;44.10
42519;BME280;28147;47.520;18.920;2022-10-16T12:53:16;99255.63;;;21.21;43.97
42519;BME280;28147;47.520;18.920;2022-10-16T12:56:09;99259.78;;;21.52;43.51
42519;BME280;28147;47.520;18.920;2022-10-16T12:58:55;99252.38;;;21.58;42.61
42519;BME280;28147;47.520;18.920;2022-10-16T13:01:40;99265.31;;;21.32;43.29
42519;BME280;28147;47.520;18.920;2022-10-16T13:12:09;99260.03;;;21.51;43.01
42519;BME280;28147;47.520;18.920;2022-10-16T13:20:34;99283.50;;;21.26;42.98
42519;BME280;28147;47.520;18.920;2022-10-16T13:28:31;99279.34;;;21.44;43.93
42519;BME280;28147;47.520;18.920;2022-10-16T13:30:58;99276.78;;;21.19;43.14
42519;BME280;28147;47.520;18.920;2022-10-16T13:35:57;99275.50;;;20.61;43.97
42519;BME280;28147;47.520;18.920;2022-10-16T13:38:30;99270.31;;;20.70;44.25
42519;BME280;28147;47.520;18.920;2022-10-16T13:40:58;99268.16;;;21.11;44.24
42519;BME280;28147;47.520;18.920;2022-10-16T13:43:32;99274.03;;;21.24;43.97
42519;BME280;28147;47.520;18.920;2022-10-16T13:46:04;99268.91;;;21.22;43.83
42519;BME280;28147;47.520;18.920;2022-10-16T13:48:31;99268.31;;;20.91;44.32
42519;BME280;28147;47.520;18.920;2022-10-16T13:51:15;99285.97;;;21.23;44.38
42519;BME280;28147;47.520;18.920;2022-10-16T13:53:40;99276.03;;;21.47;43.98
42519;BME280;28147;47.520;18.920;2022-10-16T13:56:19;99283.22;;;21.28;44.71
42519;BME280;28147;47.520;18.920;2022-10-16T13:58:45;99282.13;;;21.34;43.42
42519;BME280;28147;47.520;18.920;2022-10-16T14:01:20;99290.03;;;21.25;43.48
42519;BME280;28147;47.520;18.920;2022-10-16T14:03:49;99291.28;;;20.99;43.46
42519;BME280;28147;47.520;18.920;2022-10-16T14:06:17;99286.84;;;20.63;43.74
42519;BME280;28147;47.520;18.920;2022-10-16T14:08:47;99277.97;;;21.02;42.77
42519;BME280;28147;47.520;18.920;2022-10-16T14:11:21;99279.16;;;20.86;43.16
42519;BME280;28147;47.520;18.920;2022-10-16T14:13:49;99283.53;;;20.77;43.65
42519;BME280;28147;47.520;18.920;2022-10-16T14:16:23;99280.91;;;20.56;44.01
42519;BME280;28147;47.520;18.920;2022-10-16T14:19:17;99275.16;;;20.73;43.69
42519;BME280;28147;47.520;18.920;2022-10-16T14:21:43;99284.72;;;21.05;43.09
42519;BME280;28147;47.520;18.920;2022-10-16T14:24:19;99277.75;;;20.94;43.42
42519;BME280;28147;47.520;18.920;2022-10-16T14:26:47;99280.63;;;20.63;43.79
42519;BME280;28147;47.520;18.920;2022-10-16T14:29:18;99284.59;;;20.81;43.11
42519;BME280;28147;47.520;18.920;2022-10-16T14:32:04;99284.31;;;20.87;43.26
42519;BME280;28147;47.520;18.920;2022-10-16T14:39:42;99290.72;;;20.97;43.51